sensor_id;sensor_type;location;lat;lon;timestamp;P1;durP1;ratioP1;P2;durP2;ratioP2
72926;SDS011;61071;51.618;19.388;2023-04-26T00:02:11;9.95;;;3.90;;
72926;SDS011;61071;51.618;19.388;2023-04-26T00:04:37;12.40;;;3.53;;
72926;SDS011;61071;51.618;19.388;2023-04-26T00:07:06;12.15;;;3.42;;
72926;SDS011;61071;51.618;19.388;2023-04-26T00:09:31;11.95;;;3.25;;
72926;SDS011;61071;51.618;19.388;2023-04-26T00:11:57;11.95;;;4.55;;
72926;SDS011;61071;51.618;19.388;2023-04-26T00:14:23;12.68;;;4.70;;
72926;SDS011;61071;51.618;19.388;2023-04-26T00:16:49;16.92;;;3.97;;
72926;SDS011;61071;51.618;19.388;2023-04-26T00:19:15;9.70;;;3.72;;
72926;SDS011;61071;51.618;19.388;2023-04-26T00:21:42;9.98;;;3.80;;
72926;SDS011;61071;51.618;19.388;2023-04-26T00:24:08;12.60;;;4.60;;
72926;SDS011;61071;51.618;19.388;2023-04-26T00:26:34;9.75;;;3.53;;
72926;SDS011;61071;51.618;19.388;2023-04-26T00:29:00;14.98;;;4.50;;
72926;SDS011;61071;51.618;19.388;2023-04-26T00:31:28;10.02;;;4.15;;
72926;SDS011;61071;51.618;19.388;2023-04-26T00:33:54;12.48;;;4.95;;
72926;SDS011;61071;51.618;19.388;2023-04-26T00:36:20;17.55;;;4.72;;
72926;SDS011;61071;51.618;19.388;2023-04-26T00:38:45;12.68;;;4.70;;
72926;SDS011;61071;51.618;19.388;2023-04-26T00:41:11;15.23;;;4.90;;
72926;SDS011;61071;51.618;19.388;2023-04-26T00:43:37;16.52;;;4.88;;
72926;SDS011;61071;51.618;19.388;2023-04-26T00:46:05;14.40;;;4.47;;
72926;SDS011;61071;51.618;19.388;2023-04-26T00:48:32;15.65;;;4.45;;
72926;SDS011;61071;51.618;19.388;2023-04-26T00:51:00;14.38;;;4.18;;
72926;SDS011;61071;51.618;19.388;2023-04-26T00:53:26;15.38;;;4.82;;
72926;SDS011;61071;51.618;19.388;2023-04-26T00:55:52;14.43;;;4.75;;
72926;SDS011;61071;51.618;19.388;2023-04-26T00:58:18;15.98;;;4.90;;
72926;SDS011;61071;51.618;19.388;2023-04-26T01:00:44;11.38;;;4.82;;
72926;SDS011;61071;51.618;19.388;2023-04-26T01:03:10;16.15;;;6.05;;
72926;SDS011;61071;51.618;19.388;2023-04-26T01:05:36;14.52;;;5.43;;
72926;SDS011;61071;51.618;19.388;2023-04-26T01:08:03;11.95;;;5.13;;
72926;SDS011;61071;51.618;19.388;2023-04-26T01:10:32;17.75;;;6.55;;
72926;SDS011;61071;51.618;19.388;2023-04-26T01:12:59;15.40;;;5.38;;
72926;SDS011;61071;51.618;19.388;2023-04-26T01:15:27;14.77;;;6.07;;
72926;SDS011;61071;51.618;19.388;2023-04-26T01:17:55;18.98;;;5.95;;
72926;SDS011;61071;51.618;19.388;2023-04-26T01:20:21;14.07;;;5.85;;
72926;SDS011;61071;51.618;19.388;2023-04-26T01:22:48;18.63;;;6.55;;
72926;SDS011;61071;51.618;19.388;2023-04-26T01:25:14;12.80;;;5.85;;
72926;SDS011;61071;51.618;19.388;2023-04-26T01:27:41;15.48;;;6.38;;
72926;SDS011;61071;51.618;19.388;2023-04-26T01:30:07;18.00;;;6.60;;
72926;SDS011;61071;51.618;19.388;2023-04-26T01:32:33;18.20;;;6.50;;
72926;SDS011;61071;51.618;19.388;2023-04-26T01:35:00;22.17;;;6.40;;
72926;SDS011;61071;51.618;19.388;2023-04-26T01:37:26;17.77;;;6.28;;
72926;SDS011;61071;51.618;19.388;2023-04-26T01:39:52;22.35;;;7.18;;
72926;SDS011;61071;51.618;19.388;2023-04-26T01:42:17;18.52;;;6.80;;
72926;SDS011;61071;51.618;19.388;2023-04-26T01:44:43;15.63;;;7.15;;
72926;SDS011;61071;51.618;19.388;2023-04-26T01:47:09;15.43;;;6.93;;
72926;SDS011;61071;51.618;19.388;2023-04-26T01:49:34;16.35;;;6.65;;
72926;SDS011;61071;51.618;19.388;2023-04-26T01:52:00;16.10;;;7.25;;
72926;SDS011;61071;51.618;19.388;2023-04-26T01:54:26;16.90;;;7.00;;
72926;SDS011;61071;51.618;19.388;2023-04-26T01:56:52;18.75;;;7.63;;
72926;SDS011;61071;51.618;19.388;2023-04-26T01:59:18;18.70;;;7.90;;
72926;SDS011;61071;51.618;19.388;2023-04-26T02:01:43;17.55;;;7.47;;
72926;SDS011;61071;51.618;19.388;2023-04-26T02:04:09;22.77;;;7.57;;
72926;SDS011;61071;51.618;19.388;2023-04-26T02:06:35;20.52;;;7.53;;
72926;SDS011;61071;51.618;19.388;2023-04-26T02:09:02;22.45;;;8.40;;
72926;SDS011;61071;51.618;19.388;2023-04-26T02:11:29;21.65;;;8.07;;
72926;SDS011;61071;51.618;19.388;2023-04-26T02:13:55;27.50;;;10.63;;
72926;SDS011;61071;51.618;19.388;2023-04-26T02:16:20;21.13;;;11.27;;
72926;SDS011;61071;51.618;19.388;2023-04-26T02:18:46;17.58;;;8.07;;
72926;SDS011;61071;51.618;19.388;2023-04-26T02:21:17;21.92;;;9.60;;
72926;SDS011;61071;51.618;19.388;2023-04-26T02:23:43;15.43;;;8.35;;
72926;SDS011;61071;51.618;19.388;2023-04-26T02:26:09;17.80;;;7.88;;
72926;SDS011;61071;51.618;19.388;2023-04-26T02:28:36;17.77;;;8.55;;
72926;SDS011;61071;51.618;19.388;2023-04-26T02:31:03;26.40;;;9.07;;
72926;SDS011;61071;51.618;19.388;2023-04-26T02:33:28;17.55;;;8.90;;
72926;SDS011;61071;51.618;19.388;2023-04-26T02:35:54;22.17;;;9.35;;
72926;SDS011;61071;51.618;19.388;2023-04-26T02:38:20;19.45;;;9.63;;
72926;SDS011;61071;51.618;19.388;2023-04-26T02:40:46;21.48;;;9.60;;
72926;SDS011;61071;51.618;19.388;2023-04-26T02:43:12;26.90;;;10.02;;
72926;SDS011;61071;51.618;19.388;2023-04-26T02:45:40;19.65;;;8.35;;
72926;SDS011;61071;51.618;19.388;2023-04-26T02:48:07;18.30;;;8.93;;
72926;SDS011;61071;51.618;19.388;2023-04-26T02:50:33;17.98;;;7.88;;
72926;SDS011;61071;51.618;19.388;2023-04-26T02:52:59;16.42;;;8.32;;
72926;SDS011;61071;51.618;19.388;2023-04-26T02:55:24;21.25;;;9.02;;
72926;SDS011;61071;51.618;19.388;2023-04-26T02:57:50;22.35;;;9.05;;
72926;SDS011;61071;51.618;19.388;2023-04-26T03:00:16;21.58;;;9.32;;
72926;SDS011;61071;51.618;19.388;2023-04-26T03:02:42;28.05;;;9.48;;
72926;SDS011;61071;51.618;19.388;2023-04-26T03:05:07;22.08;;;10.07;;
72926;SDS011;61071;51.618;19.388;2023-04-26T03:07:34;23.35;;;9.80;;
72926;SDS011;61071;51.618;19.388;2023-04-26T03:10:01;20.30;;;9.48;;
72926;SDS011;61071;51.618;19.388;2023-04-26T03:12:26;22.95;;;9.48;;
72926;SDS011;61071;51.618;19.388;2023-04-26T03:14:52;21.13;;;9.55;;
72926;SDS011;61071;51.618;19.388;2023-04-26T03:17:18;19.67;;;9.75;;
72926;SDS011;61071;51.618;19.388;2023-04-26T03:19:44;20.98;;;9.30;;
72926;SDS011;61071;51.618;19.388;2023-04-26T03:22:09;19.42;;;9.38;;
72926;SDS011;61071;51.618;19.388;2023-04-26T03:24:40;25.35;;;10.85;;
72926;SDS011;61071;51.618;19.388;2023-04-26T03:27:07;24.70;;;10.48;;
72926;SDS011;61071;51.618;19.388;2023-04-26T03:29:33;24.58;;;9.88;;
72926;SDS011;61071;51.618;19.388;2023-04-26T03:31:59;21.10;;;9.38;;
72926;SDS011;61071;51.618;19.388;2023-04-26T03:34:24;17.02;;;9.73;;
72926;SDS011;61071;51.618;19.388;2023-04-26T03:36:51;21.33;;;9.32;;
72926;SDS011;61071;51.618;19.388;2023-04-26T03:39:17;51.25;;;23.10;;
72926;SDS011;61071;51.618;19.388;2023-04-26T03:41:43;19.52;;;10.10;;
72926;SDS011;61071;51.618;19.388;2023-04-26T03:44:09;20.90;;;9.55;;
72926;SDS011;61071;51.618;19.388;2023-04-26T03:46:34;17.98;;;9.55;;
72926;SDS011;61071;51.618;19.388;2023-04-26T03:49:00;20.13;;;9.38;;
72926;SDS011;61071;51.618;19.388;2023-04-26T03:51:26;17.13;;;9.05;;
72926;SDS011;61071;51.618;19.388;2023-04-26T03:53:52;21.20;;;9.00;;
72926;SDS011;61071;51.618;19.388;2023-04-26T03:56:18;19.90;;;9.68;;
72926;SDS011;61071;51.618;19.388;2023-04-26T03:58:45;16.05;;;9.23;;
72926;SDS011;61071;51.618;19.388;2023-04-26T04:01:10;26.80;;;11.23;;
72926;SDS011;61071;51.618;19.388;2023-04-26T04:03:36;20.63;;;8.63;;
72926;SDS011;61071;51.618;19.388;2023-04-26T04:06:02;19.15;;;8.60;;
72926;SDS011;61071;51.618;19.388;2023-04-26T04:08:29;14.20;;;7.90;;
72926;SDS011;61071;51.618;19.388;2023-04-26T04:10:54;23.85;;;9.10;;
72926;SDS011;61071;51.618;19.388;2023-04-26T04:13:20;18.25;;;7.00;;
72926;SDS011;61071;51.618;19.388;2023-04-26T04:15:46;15.07;;;7.28;;
72926;SDS011;61071;51.618;19.388;2023-04-26T04:18:13;17.42;;;8.15;;
72926;SDS011;61071;51.618;19.388;2023-04-26T04:20:42;18.58;;;8.73;;
72926;SDS011;61071;51.618;19.388;2023-04-26T04:23:08;62.17;;;38.65;;
72926;SDS011;61071;51.618;19.388;2023-04-26T04:25:34;26.40;;;14.32;;
72926;SDS011;61071;51.618;19.388;2023-04-26T04:28:01;25.83;;;15.40;;
72926;SDS011;61071;51.618;19.388;2023-04-26T04:30:27;35.53;;;19.90;;
72926;SDS011;61071;51.618;19.388;2023-04-26T04:32:54;20.20;;;11.05;;
72926;SDS011;61071;51.618;19.388;2023-04-26T04:35:23;25.35;;;12.13;;
72926;SDS011;61071;51.618;19.388;2023-04-26T04:37:56;32.38;;;19.25;;
72926;SDS011;61071;51.618;19.388;2023-04-26T04:40:22;25.63;;;11.98;;
72926;SDS011;61071;51.618;19.388;2023-04-26T04:42:49;39.50;;;19.98;;
72926;SDS011;61071;51.618;19.388;2023-04-26T04:45:15;43.90;;;19.42;;
72926;SDS011;61071;51.618;19.388;2023-04-26T04:47:44;37.53;;;16.65;;
72926;SDS011;61071;51.618;19.388;2023-04-26T04:50:10;59.35;;;26.95;;
72926;SDS011;61071;51.618;19.388;2023-04-26T04:52:36;63.45;;;25.95;;
72926;SDS011;61071;51.618;19.388;2023-04-26T04:55:02;37.05;;;17.08;;
72926;SDS011;61071;51.618;19.388;2023-04-26T04:57:29;34.55;;;14.35;;
72926;SDS011;61071;51.618;19.388;2023-04-26T04:59:56;50.55;;;19.67;;
72926;SDS011;61071;51.618;19.388;2023-04-26T05:02:22;57.55;;;24.33;;
72926;SDS011;61071;51.618;19.388;2023-04-26T05:04:49;33.85;;;19.98;;
72926;SDS011;61071;51.618;19.388;2023-04-26T05:07:15;17.52;;;10.07;;
72926;SDS011;61071;51.618;19.388;2023-04-26T05:09:42;12.05;;;4.70;;
72926;SDS011;61071;51.618;19.388;2023-04-26T05:12:08;12.63;;;5.13;;
72926;SDS011;61071;51.618;19.388;2023-04-26T05:14:33;9.13;;;4.30;;
72926;SDS011;61071;51.618;19.388;2023-04-26T05:16:59;9.27;;;4.07;;
72926;SDS011;61071;51.618;19.388;2023-04-26T05:19:25;12.75;;;4.97;;
72926;SDS011;61071;51.618;19.388;2023-04-26T05:21:51;11.60;;;4.38;;
72926;SDS011;61071;51.618;19.388;2023-04-26T05:24:17;14.82;;;3.95;;
72926;SDS011;61071;51.618;19.388;2023-04-26T05:26:43;9.38;;;4.38;;
72926;SDS011;61071;51.618;19.388;2023-04-26T05:29:08;8.90;;;3.47;;
72926;SDS011;61071;51.618;19.388;2023-04-26T05:31:34;11.20;;;3.50;;
72926;SDS011;61071;51.618;19.388;2023-04-26T05:34:00;8.75;;;3.05;;
72926;SDS011;61071;51.618;19.388;2023-04-26T05:36:26;10.70;;;3.20;;
72926;SDS011;61071;51.618;19.388;2023-04-26T05:38:52;8.35;;;3.53;;
72926;SDS011;61071;51.618;19.388;2023-04-26T05:41:18;8.13;;;3.45;;
72926;SDS011;61071;51.618;19.388;2023-04-26T05:43:44;9.65;;;4.25;;
72926;SDS011;61071;51.618;19.388;2023-04-26T05:46:11;9.70;;;3.13;;
72926;SDS011;61071;51.618;19.388;2023-04-26T05:48:37;10.38;;;2.80;;
72926;SDS011;61071;51.618;19.388;2023-04-26T05:51:03;10.88;;;3.42;;
72926;SDS011;61071;51.618;19.388;2023-04-26T05:53:28;7.30;;;3.60;;
72926;SDS011;61071;51.618;19.388;2023-04-26T05:55:54;9.80;;;4.28;;
72926;SDS011;61071;51.618;19.388;2023-04-26T05:58:20;10.10;;;3.45;;
72926;SDS011;61071;51.618;19.388;2023-04-26T06:00:46;13.07;;;3.90;;
72926;SDS011;61071;51.618;19.388;2023-04-26T06:03:12;9.38;;;2.97;;
72926;SDS011;61071;51.618;19.388;2023-04-26T06:05:37;9.88;;;4.18;;
72926;SDS011;61071;51.618;19.388;2023-04-26T06:08:03;8.15;;;2.85;;
72926;SDS011;61071;51.618;19.388;2023-04-26T06:10:30;8.32;;;3.10;;
72926;SDS011;61071;51.618;19.388;2023-04-26T06:12:55;7.50;;;2.75;;
72926;SDS011;61071;51.618;19.388;2023-04-26T06:15:21;9.52;;;3.13;;
72926;SDS011;61071;51.618;19.388;2023-04-26T06:17:47;11.02;;;2.70;;
72926;SDS011;61071;51.618;19.388;2023-04-26T06:20:13;7.07;;;2.63;;
72926;SDS011;61071;51.618;19.388;2023-04-26T06:22:39;8.57;;;2.47;;
72926;SDS011;61071;51.618;19.388;2023-04-26T06:25:04;7.55;;;2.70;;
72926;SDS011;61071;51.618;19.388;2023-04-26T06:27:31;6.55;;;2.67;;
72926;SDS011;61071;51.618;19.388;2023-04-26T06:29:57;9.07;;;2.63;;
72926;SDS011;61071;51.618;19.388;2023-04-26T06:32:23;7.88;;;3.17;;
72926;SDS011;61071;51.618;19.388;2023-04-26T06:34:49;9.93;;;4.13;;
72926;SDS011;61071;51.618;19.388;2023-04-26T06:37:15;12.93;;;3.35;;
72926;SDS011;61071;51.618;19.388;2023-04-26T06:39:40;8.90;;;2.78;;
72926;SDS011;61071;51.618;19.388;2023-04-26T06:42:06;14.20;;;4.13;;
72926;SDS011;61071;51.618;19.388;2023-04-26T06:44:32;16.52;;;5.80;;
72926;SDS011;61071;51.618;19.388;2023-04-26T06:46:58;8.57;;;3.78;;
72926;SDS011;61071;51.618;19.388;2023-04-26T06:49:24;11.20;;;3.35;;
72926;SDS011;61071;51.618;19.388;2023-04-26T06:51:50;10.77;;;3.05;;
72926;SDS011;61071;51.618;19.388;2023-04-26T06:54:17;7.60;;;2.47;;
72926;SDS011;61071;51.618;19.388;2023-04-26T06:56:43;17.83;;;4.32;;
72926;SDS011;61071;51.618;19.388;2023-04-26T06:59:10;11.02;;;3.55;;
72926;SDS011;61071;51.618;19.388;2023-04-26T07:01:36;12.07;;;3.40;;
72926;SDS011;61071;51.618;19.388;2023-04-26T07:04:03;12.52;;;3.95;;
72926;SDS011;61071;51.618;19.388;2023-04-26T07:06:36;7.93;;;2.13;;
72926;SDS011;61071;51.618;19.388;2023-04-26T07:09:03;7.20;;;2.50;;
72926;SDS011;61071;51.618;19.388;2023-04-26T07:11:29;8.18;;;2.72;;
72926;SDS011;61071;51.618;19.388;2023-04-26T07:13:56;14.10;;;3.75;;
72926;SDS011;61071;51.618;19.388;2023-04-26T07:16:22;7.25;;;3.30;;
72926;SDS011;61071;51.618;19.388;2023-04-26T07:18:48;9.55;;;3.70;;
72926;SDS011;61071;51.618;19.388;2023-04-26T07:21:14;10.85;;;3.50;;
72926;SDS011;61071;51.618;19.388;2023-04-26T07:23:40;4.45;;;1.55;;
72926;SDS011;61071;51.618;19.388;2023-04-26T07:26:06;9.93;;;3.38;;
72926;SDS011;61071;51.618;19.388;2023-04-26T07:28:34;6.10;;;1.95;;
72926;SDS011;61071;51.618;19.388;2023-04-26T07:31:00;10.45;;;3.30;;
72926;SDS011;61071;51.618;19.388;2023-04-26T07:33:25;11.77;;;3.97;;
72926;SDS011;61071;51.618;19.388;2023-04-26T07:35:52;11.57;;;4.03;;
72926;SDS011;61071;51.618;19.388;2023-04-26T07:40:49;7.47;;;1.85;;
72926;SDS011;61071;51.618;19.388;2023-04-26T07:43:17;14.10;;;3.30;;
72926;SDS011;61071;51.618;19.388;2023-04-26T07:45:46;10.05;;;2.63;;
72926;SDS011;61071;51.618;19.388;2023-04-26T07:48:12;6.93;;;2.10;;
72926;SDS011;61071;51.618;19.388;2023-04-26T07:50:38;11.68;;;1.80;;
72926;SDS011;61071;51.618;19.388;2023-04-26T07:53:04;6.65;;;2.00;;
72926;SDS011;61071;51.618;19.388;2023-04-26T07:55:29;7.70;;;2.88;;
72926;SDS011;61071;51.618;19.388;2023-04-26T07:57:55;7.50;;;2.53;;
72926;SDS011;61071;51.618;19.388;2023-04-26T08:00:21;5.82;;;1.95;;
72926;SDS011;61071;51.618;19.388;2023-04-26T08:02:47;8.38;;;2.70;;
72926;SDS011;61071;51.618;19.388;2023-04-26T08:05:14;6.88;;;2.15;;
72926;SDS011;61071;51.618;19.388;2023-04-26T08:07:40;6.88;;;2.50;;
72926;SDS011;61071;51.618;19.388;2023-04-26T08:10:07;9.50;;;2.47;;
72926;SDS011;61071;51.618;19.388;2023-04-26T08:12:34;5.40;;;1.77;;
72926;SDS011;61071;51.618;19.388;2023-04-26T08:15:02;5.95;;;2.63;;
72926;SDS011;61071;51.618;19.388;2023-04-26T08:17:32;7.65;;;1.83;;
72926;SDS011;61071;51.618;19.388;2023-04-26T08:19:58;8.23;;;3.55;;
72926;SDS011;61071;51.618;19.388;2023-04-26T08:22:24;9.15;;;1.75;;
72926;SDS011;61071;51.618;19.388;2023-04-26T08:24:54;11.52;;;2.85;;
72926;SDS011;61071;51.618;19.388;2023-04-26T08:27:20;16.83;;;3.17;;
72926;SDS011;61071;51.618;19.388;2023-04-26T08:29:46;15.43;;;3.45;;
72926;SDS011;61071;51.618;19.388;2023-04-26T08:32:12;9.85;;;2.40;;
72926;SDS011;61071;51.618;19.388;2023-04-26T08:34:38;8.25;;;2.30;;
72926;SDS011;61071;51.618;19.388;2023-04-26T08:37:07;5.10;;;1.90;;
72926;SDS011;61071;51.618;19.388;2023-04-26T08:39:32;8.00;;;1.90;;
72926;SDS011;61071;51.618;19.388;2023-04-26T08:42:05;5.60;;;2.00;;
72926;SDS011;61071;51.618;19.388;2023-04-26T08:44:42;7.57;;;2.50;;
72926;SDS011;61071;51.618;19.388;2023-04-26T08:49:43;8.25;;;1.52;;
72926;SDS011;61071;51.618;19.388;2023-04-26T08:52:17;6.38;;;1.83;;
72926;SDS011;61071;51.618;19.388;2023-04-26T08:54:48;6.00;;;1.83;;
72926;SDS011;61071;51.618;19.388;2023-04-26T08:57:17;18.95;;;3.08;;
72926;SDS011;61071;51.618;19.388;2023-04-26T08:59:43;10.52;;;4.28;;
72926;SDS011;61071;51.618;19.388;2023-04-26T09:02:10;8.10;;;2.40;;
72926;SDS011;61071;51.618;19.388;2023-04-26T09:04:48;8.23;;;2.67;;
72926;SDS011;61071;51.618;19.388;2023-04-26T09:07:26;7.80;;;2.03;;
72926;SDS011;61071;51.618;19.388;2023-04-26T09:09:59;5.45;;;1.50;;
72926;SDS011;61071;51.618;19.388;2023-04-26T09:12:28;6.28;;;1.85;;
72926;SDS011;61071;51.618;19.388;2023-04-26T09:14:54;5.60;;;2.03;;
72926;SDS011;61071;51.618;19.388;2023-04-26T09:20:09;8.27;;;1.67;;
72926;SDS011;61071;51.618;19.388;2023-04-26T09:22:46;7.10;;;2.60;;
72926;SDS011;61071;51.618;19.388;2023-04-26T09:25:14;9.15;;;4.40;;
72926;SDS011;61071;51.618;19.388;2023-04-26T09:27:44;3.88;;;1.73;;
72926;SDS011;61071;51.618;19.388;2023-04-26T09:30:12;4.65;;;1.80;;
72926;SDS011;61071;51.618;19.388;2023-04-26T09:32:44;7.95;;;2.60;;
72926;SDS011;61071;51.618;19.388;2023-04-26T09:35:21;8.18;;;2.70;;
72926;SDS011;61071;51.618;19.388;2023-04-26T09:38:03;8.38;;;2.33;;
72926;SDS011;61071;51.618;19.388;2023-04-26T09:40:41;7.93;;;2.30;;
72926;SDS011;61071;51.618;19.388;2023-04-26T09:43:13;5.63;;;1.55;;
72926;SDS011;61071;51.618;19.388;2023-04-26T09:45:50;9.50;;;3.53;;
72926;SDS011;61071;51.618;19.388;2023-04-26T09:48:28;6.28;;;1.85;;
72926;SDS011;61071;51.618;19.388;2023-04-26T09:51:00;7.38;;;2.30;;
72926;SDS011;61071;51.618;19.388;2023-04-26T09:53:39;6.57;;;1.92;;
72926;SDS011;61071;51.618;19.388;2023-04-26T09:56:13;8.88;;;1.92;;
72926;SDS011;61071;51.618;19.388;2023-04-26T10:01:14;4.53;;;2.22;;
72926;SDS011;61071;51.618;19.388;2023-04-26T10:03:43;6.43;;;1.90;;
72926;SDS011;61071;51.618;19.388;2023-04-26T10:06:10;7.18;;;2.13;;
72926;SDS011;61071;51.618;19.388;2023-04-26T10:08:37;4.90;;;1.50;;
72926;SDS011;61071;51.618;19.388;2023-04-26T10:11:03;8.73;;;1.80;;
72926;SDS011;61071;51.618;19.388;2023-04-26T10:13:35;8.18;;;2.20;;
72926;SDS011;61071;51.618;19.388;2023-04-26T10:16:02;7.57;;;1.75;;
72926;SDS011;61071;51.618;19.388;2023-04-26T10:18:29;5.32;;;1.90;;
72926;SDS011;61071;51.618;19.388;2023-04-26T10:20:59;4.10;;;1.50;;
72926;SDS011;61071;51.618;19.388;2023-04-26T10:23:34;7.10;;;2.53;;
72926;SDS011;61071;51.618;19.388;2023-04-26T10:26:01;6.50;;;2.33;;
72926;SDS011;61071;51.618;19.388;2023-04-26T10:31:10;7.22;;;2.35;;
72926;SDS011;61071;51.618;19.388;2023-04-26T10:33:36;5.13;;;1.90;;
72926;SDS011;61071;51.618;19.388;2023-04-26T10:41:44;4.80;;;1.80;;
72926;SDS011;61071;51.618;19.388;2023-04-26T10:47:06;8.20;;;2.63;;
72926;SDS011;61071;51.618;19.388;2023-04-26T10:49:50;6.97;;;1.60;;
72926;SDS011;61071;51.618;19.388;2023-04-26T10:52:18;6.40;;;1.67;;
72926;SDS011;61071;51.618;19.388;2023-04-26T11:02:52;3.40;;;1.60;;
72926;SDS011;61071;51.618;19.388;2023-04-26T11:05:34;5.13;;;1.60;;
72926;SDS011;61071;51.618;19.388;2023-04-26T11:08:19;7.75;;;1.70;;
72926;SDS011;61071;51.618;19.388;2023-04-26T11:10:57;4.03;;;1.50;;
72926;SDS011;61071;51.618;19.388;2023-04-26T11:16:09;5.18;;;1.80;;
72926;SDS011;61071;51.618;19.388;2023-04-26T11:18:39;5.28;;;1.73;;
72926;SDS011;61071;51.618;19.388;2023-04-26T11:21:07;6.78;;;1.90;;
72926;SDS011;61071;51.618;19.388;2023-04-26T11:23:33;4.68;;;1.95;;
72926;SDS011;61071;51.618;19.388;2023-04-26T11:26:06;8.57;;;1.70;;
72926;SDS011;61071;51.618;19.388;2023-04-26T11:28:34;6.25;;;1.80;;
72926;SDS011;61071;51.618;19.388;2023-04-26T11:31:02;5.43;;;1.42;;
72926;SDS011;61071;51.618;19.388;2023-04-26T11:33:30;7.78;;;1.70;;
72926;SDS011;61071;51.618;19.388;2023-04-26T11:35:58;5.80;;;1.70;;
72926;SDS011;61071;51.618;19.388;2023-04-26T11:38:24;2.25;;;1.20;;
72926;SDS011;61071;51.618;19.388;2023-04-26T11:40:56;7.03;;;1.55;;
72926;SDS011;61071;51.618;19.388;2023-04-26T11:46:06;5.00;;;1.75;;
72926;SDS011;61071;51.618;19.388;2023-04-26T11:48:34;4.93;;;1.67;;
72926;SDS011;61071;51.618;19.388;2023-04-26T11:51:03;4.95;;;1.70;;
72926;SDS011;61071;51.618;19.388;2023-04-26T11:53:38;3.80;;;2.03;;
72926;SDS011;61071;51.618;19.388;2023-04-26T11:56:17;4.35;;;1.73;;
72926;SDS011;61071;51.618;19.388;2023-04-26T11:58:49;5.50;;;1.45;;
72926;SDS011;61071;51.618;19.388;2023-04-26T12:01:22;4.85;;;1.75;;
72926;SDS011;61071;51.618;19.388;2023-04-26T12:03:51;5.72;;;1.38;;
72926;SDS011;61071;51.618;19.388;2023-04-26T12:06:19;6.88;;;1.95;;
72926;SDS011;61071;51.618;19.388;2023-04-26T12:09:06;9.23;;;2.10;;
72926;SDS011;61071;51.618;19.388;2023-04-26T12:11:33;5.82;;;1.80;;
72926;SDS011;61071;51.618;19.388;2023-04-26T12:13:59;5.28;;;2.03;;
72926;SDS011;61071;51.618;19.388;2023-04-26T12:16:26;5.93;;;1.98;;
72926;SDS011;61071;51.618;19.388;2023-04-26T12:18:52;5.07;;;1.63;;
72926;SDS011;61071;51.618;19.388;2023-04-26T12:21:20;6.38;;;2.08;;
72926;SDS011;61071;51.618;19.388;2023-04-26T12:23:47;5.82;;;1.80;;
72926;SDS011;61071;51.618;19.388;2023-04-26T12:26:13;3.53;;;1.38;;
72926;SDS011;61071;51.618;19.388;2023-04-26T12:28:39;4.35;;;1.55;;
72926;SDS011;61071;51.618;19.388;2023-04-26T12:31:05;7.40;;;2.03;;
72926;SDS011;61071;51.618;19.388;2023-04-26T12:33:32;5.35;;;1.70;;
72926;SDS011;61071;51.618;19.388;2023-04-26T12:36:05;5.93;;;2.28;;
72926;SDS011;61071;51.618;19.388;2023-04-26T12:38:36;9.10;;;1.95;;
72926;SDS011;61071;51.618;19.388;2023-04-26T12:41:02;6.35;;;1.92;;
72926;SDS011;61071;51.618;19.388;2023-04-26T12:43:29;3.92;;;1.50;;
72926;SDS011;61071;51.618;19.388;2023-04-26T12:45:55;3.55;;;1.40;;
72926;SDS011;61071;51.618;19.388;2023-04-26T12:48:21;7.25;;;1.58;;
72926;SDS011;61071;51.618;19.388;2023-04-26T12:50:46;4.82;;;1.52;;
72926;SDS011;61071;51.618;19.388;2023-04-26T12:53:12;5.13;;;1.90;;
72926;SDS011;61071;51.618;19.388;2023-04-26T12:55:38;3.70;;;1.70;;
72926;SDS011;61071;51.618;19.388;2023-04-26T12:58:04;10.52;;;4.55;;
72926;SDS011;61071;51.618;19.388;2023-04-26T13:00:30;18.48;;;5.50;;
72926;SDS011;61071;51.618;19.388;2023-04-26T13:02:55;5.63;;;1.70;;
72926;SDS011;61071;51.618;19.388;2023-04-26T13:05:21;8.10;;;2.22;;
72926;SDS011;61071;51.618;19.388;2023-04-26T13:07:50;8.82;;;2.72;;
72926;SDS011;61071;51.618;19.388;2023-04-26T13:10:16;6.10;;;2.13;;
72926;SDS011;61071;51.618;19.388;2023-04-26T13:12:42;3.55;;;1.73;;
72926;SDS011;61071;51.618;19.388;2023-04-26T13:15:08;6.85;;;2.03;;
72926;SDS011;61071;51.618;19.388;2023-04-26T13:17:35;9.77;;;3.35;;
72926;SDS011;61071;51.618;19.388;2023-04-26T13:20:05;4.25;;;1.80;;
72926;SDS011;61071;51.618;19.388;2023-04-26T13:22:31;7.45;;;2.08;;
72926;SDS011;61071;51.618;19.388;2023-04-26T13:24:57;9.13;;;2.28;;
72926;SDS011;61071;51.618;19.388;2023-04-26T13:27:23;10.65;;;1.98;;
72926;SDS011;61071;51.618;19.388;2023-04-26T13:29:49;7.22;;;1.83;;
72926;SDS011;61071;51.618;19.388;2023-04-26T13:32:16;11.07;;;5.25;;
72926;SDS011;61071;51.618;19.388;2023-04-26T13:34:42;6.10;;;2.00;;
72926;SDS011;61071;51.618;19.388;2023-04-26T13:37:10;6.32;;;2.88;;
72926;SDS011;61071;51.618;19.388;2023-04-26T13:39:36;7.03;;;2.30;;
72926;SDS011;61071;51.618;19.388;2023-04-26T13:42:01;6.30;;;1.90;;
72926;SDS011;61071;51.618;19.388;2023-04-26T13:44:27;5.88;;;1.80;;
72926;SDS011;61071;51.618;19.388;2023-04-26T13:46:53;11.57;;;4.85;;
72926;SDS011;61071;51.618;19.388;2023-04-26T13:49:20;9.52;;;2.22;;
72926;SDS011;61071;51.618;19.388;2023-04-26T13:51:47;6.28;;;2.13;;
72926;SDS011;61071;51.618;19.388;2023-04-26T13:54:13;7.22;;;2.65;;
72926;SDS011;61071;51.618;19.388;2023-04-26T13:56:39;4.07;;;1.73;;
72926;SDS011;61071;51.618;19.388;2023-04-26T13:59:04;4.38;;;1.90;;
72926;SDS011;61071;51.618;19.388;2023-04-26T14:01:32;4.97;;;2.00;;
72926;SDS011;61071;51.618;19.388;2023-04-26T14:04:03;4.05;;;1.63;;
72926;SDS011;61071;51.618;19.388;2023-04-26T14:06:29;3.65;;;1.30;;
72926;SDS011;61071;51.618;19.388;2023-04-26T14:08:56;9.15;;;2.00;;
72926;SDS011;61071;51.618;19.388;2023-04-26T14:11:22;4.65;;;1.98;;
72926;SDS011;61071;51.618;19.388;2023-04-26T14:13:48;3.65;;;1.75;;
72926;SDS011;61071;51.618;19.388;2023-04-26T14:16:15;8.93;;;2.65;;
72926;SDS011;61071;51.618;19.388;2023-04-26T14:18:41;11.35;;;2.90;;
72926;SDS011;61071;51.618;19.388;2023-04-26T14:21:12;7.97;;;2.67;;
72926;SDS011;61071;51.618;19.388;2023-04-26T14:23:37;5.72;;;2.00;;
72926;SDS011;61071;51.618;19.388;2023-04-26T14:26:03;6.13;;;2.10;;
72926;SDS011;61071;51.618;19.388;2023-04-26T14:28:29;6.13;;;2.00;;
72926;SDS011;61071;51.618;19.388;2023-04-26T14:30:55;5.95;;;1.67;;
72926;SDS011;61071;51.618;19.388;2023-04-26T14:33:21;8.20;;;2.72;;
72926;SDS011;61071;51.618;19.388;2023-04-26T14:35:47;4.10;;;1.55;;
72926;SDS011;61071;51.618;19.388;2023-04-26T14:38:13;4.40;;;1.80;;
72926;SDS011;61071;51.618;19.388;2023-04-26T14:40:38;3.50;;;1.38;;
72926;SDS011;61071;51.618;19.388;2023-04-26T14:43:04;5.25;;;1.80;;
72926;SDS011;61071;51.618;19.388;2023-04-26T14:45:30;7.35;;;2.03;;
72926;SDS011;61071;51.618;19.388;2023-04-26T14:47:58;6.85;;;1.45;;
72926;SDS011;61071;51.618;19.388;2023-04-26T14:50:26;10.63;;;3.22;;
72926;SDS011;61071;51.618;19.388;2023-04-26T14:52:53;8.75;;;1.58;;
72926;SDS011;61071;51.618;19.388;2023-04-26T14:55:20;6.22;;;2.00;;
72926;SDS011;61071;51.618;19.388;2023-04-26T14:57:51;8.70;;;2.13;;
72926;SDS011;61071;51.618;19.388;2023-04-26T15:00:18;8.82;;;1.92;;
72926;SDS011;61071;51.618;19.388;2023-04-26T15:02:49;4.72;;;1.50;;
72926;SDS011;61071;51.618;19.388;2023-04-26T15:05:15;7.18;;;1.85;;